createdAt,value
2022-10-18T00:00:56.167Z,0.00
2022-10-18T00:01:53.047Z,0.00
2022-10-18T00:02:52.854Z,0.00
2022-10-18T00:03:52.065Z,0.00
2022-10-18T00:04:52.594Z,0.00
2022-10-18T00:05:52.464Z,0.00
2022-10-18T00:06:57.464Z,0.00
2022-10-18T00:07:54.762Z,0.00
2022-10-18T00:08:53.115Z,0.00
2022-10-18T00:09:52.466Z,0.00
2022-10-18T00:10:52.340Z,0.00
2022-10-18T00:11:53.207Z,0.00
2022-10-18T00:12:51.944Z,0.00
2022-10-18T00:13:53.967Z,0.00
2022-10-18T00:14:51.907Z,0.00
2022-10-18T00:15:53.177Z,0.00
2022-10-18T00:16:56.077Z,0.00
2022-10-18T00:17:52.350Z,0.00
2022-10-18T00:18:51.861Z,0.00
2022-10-18T00:19:53.085Z,0.00
2022-10-18T00:20:51.827Z,0.00
2022-10-18T00:21:51.831Z,0.00
2022-10-18T00:22:52.630Z,0.00
2022-10-18T00:23:53.788Z,0.00
2022-10-18T00:24:54.407Z,0.00
2022-10-18T00:25:54.273Z,0.00
2022-10-18T00:26:54.378Z,0.00
2022-10-18T00:27:52.481Z,0.00
2022-10-18T00:28:51.805Z,0.00
2022-10-18T00:29:52.676Z,0.00
2022-10-18T00:30:51.711Z,0.00
2022-10-18T00:31:51.689Z,0.00
2022-10-18T00:32:52.391Z,0.00
2022-10-18T00:33:51.723Z,0.00
2022-10-18T00:34:52.085Z,0.00
2022-10-18T00:35:51.644Z,0.00
2022-10-18T00:36:51.623Z,0.00
2022-10-18T00:37:54.282Z,0.00
2022-10-18T00:38:52.377Z,0.00
2022-10-18T00:40:52.356Z,0.00
2022-10-18T00:41:52.746Z,0.00
2022-10-18T00:42:52.596Z,0.00
2022-10-18T00:43:51.532Z,0.00
2022-10-18T00:44:52.098Z,0.00
2022-10-18T00:45:55.314Z,0.00
2022-10-18T00:46:52.621Z,0.00
2022-10-18T00:47:51.495Z,0.00
2022-10-18T00:48:51.914Z,0.00
2022-10-18T00:49:53.286Z,0.00
2022-10-18T00:50:51.429Z,0.00
2022-10-18T00:51:51.429Z,0.00
2022-10-18T00:52:52.879Z,0.00
2022-10-18T00:53:56.330Z,0.00
2022-10-18T00:54:51.597Z,0.00
2022-10-18T00:55:51.377Z,0.00
2022-10-18T00:56:51.357Z,0.00
2022-10-18T00:57:52.296Z,0.00
2022-10-18T00:58:51.330Z,0.00
2022-10-18T00:59:51.321Z,0.00
2022-10-18T01:00:52.892Z,0.00
2022-10-18T01:01:51.346Z,0.00
2022-10-18T01:02:51.294Z,0.00
2022-10-18T01:03:52.057Z,0.00
2022-10-18T01:04:51.387Z,0.00
2022-10-18T01:05:51.281Z,0.00
2022-10-18T01:06:52.185Z,0.00
2022-10-18T01:07:51.231Z,0.00
2022-10-18T01:08:52.344Z,0.00
2022-10-18T01:09:52.716Z,0.00
2022-10-18T01:10:51.174Z,0.00
2022-10-18T01:11:51.173Z,0.00
2022-10-18T01:12:51.282Z,0.00
2022-10-18T01:13:51.143Z,0.00
2022-10-18T01:14:51.116Z,0.00
2022-10-18T01:15:52.254Z,0.00
2022-10-18T01:16:51.099Z,0.00
2022-10-18T01:17:53.177Z,0.00
2022-10-18T01:18:51.088Z,0.00
2022-10-18T01:19:51.366Z,0.00
2022-10-18T01:20:51.039Z,0.00
2022-10-18T01:21:52.064Z,0.00
2022-10-18T01:22:51.447Z,0.00
2022-10-18T01:23:51.016Z,0.00
2022-10-18T01:24:51.691Z,0.00
2022-10-18T01:25:51.000Z,0.00
2022-10-18T01:26:50.980Z,0.00
2022-10-18T01:27:51.230Z,0.00
2022-10-18T01:28:50.978Z,0.00
2022-10-18T01:29:50.927Z,0.00
2022-10-18T01:30:50.922Z,0.00
2022-10-18T01:31:50.908Z,0.00
2022-10-18T01:32:51.836Z,0.00
2022-10-18T01:33:50.954Z,0.00
2022-10-18T01:34:50.862Z,0.00
2022-10-18T01:35:51.081Z,0.00
2022-10-18T01:36:50.972Z,0.00
2022-10-18T01:37:51.843Z,0.00
2022-10-18T01:38:50.804Z,0.00
2022-10-18T01:39:51.756Z,0.00
2022-10-18T01:40:51.945Z,0.00
2022-10-18T01:41:50.794Z,0.00
2022-10-18T01:42:57.317Z,0.00
2022-10-18T01:43:50.757Z,0.00
2022-10-18T01:44:50.725Z,0.00
2022-10-18T01:45:51.666Z,0.00
2022-10-18T01:46:52.108Z,0.00
2022-10-18T01:47:51.953Z,0.00
2022-10-18T01:48:50.938Z,0.00
2022-10-18T01:49:52.098Z,0.00
2022-10-18T01:50:50.637Z,0.00
2022-10-18T01:51:50.648Z,0.00
2022-10-18T01:52:50.626Z,0.00
2022-10-18T01:53:50.619Z,0.00
2022-10-18T01:54:59.079Z,0.00
2022-10-18T01:55:51.784Z,0.00
2022-10-18T01:56:50.599Z,0.00
2022-10-18T01:57:50.558Z,0.00
2022-10-18T01:58:51.357Z,0.00
2022-10-18T01:59:50.680Z,0.00
2022-10-18T02:00:51.550Z,0.00
2022-10-18T02:01:52.635Z,0.00
2022-10-18T02:02:51.251Z,0.00
2022-10-18T02:03:50.480Z,0.00
2022-10-18T02:04:50.972Z,0.00
2022-10-18T02:05:50.813Z,0.00
2022-10-18T02:06:51.693Z,0.00
2022-10-18T02:08:05.595Z,0.00
2022-10-18T02:08:51.403Z,0.00
2022-10-18T02:09:50.673Z,0.00
2022-10-18T02:10:50.385Z,0.00
2022-10-18T02:11:52.495Z,0.00
2022-10-18T02:12:50.360Z,0.00
2022-10-18T02:13:50.355Z,0.00
2022-10-18T02:14:51.005Z,0.00
2022-10-18T02:15:51.355Z,0.00
2022-10-18T02:16:50.685Z,0.00
2022-10-18T02:17:52.542Z,0.00
2022-10-18T02:18:51.230Z,0.00
2022-10-18T02:19:50.686Z,0.00
2022-10-18T02:20:50.539Z,0.00
2022-10-18T02:21:50.249Z,0.00
2022-10-18T02:22:51.237Z,0.00
2022-10-18T02:23:51.168Z,0.00
2022-10-18T02:24:50.399Z,0.00
2022-10-18T02:25:50.268Z,0.00
2022-10-18T02:26:50.618Z,0.00
2022-10-18T02:27:50.450Z,0.00
2022-10-18T02:28:53.359Z,0.00
2022-10-18T02:29:50.139Z,0.00
2022-10-18T02:30:50.119Z,0.00
2022-10-18T02:31:52.873Z,0.00
2022-10-18T02:32:50.150Z,0.00
2022-10-18T02:33:50.484Z,0.00
2022-10-18T02:34:50.833Z,0.00
2022-10-18T02:35:51.671Z,0.00
2022-10-18T02:36:51.436Z,0.00
2022-10-18T02:37:50.522Z,0.00
2022-10-18T02:38:50.036Z,0.00
2022-10-18T02:39:50.969Z,0.00
2022-10-18T02:40:50.293Z,0.00
2022-10-18T02:41:49.991Z,0.00
2022-10-18T02:42:51.012Z,0.00
2022-10-18T02:43:50.362Z,0.00
2022-10-18T02:44:49.941Z,0.00
2022-10-18T02:45:49.921Z,0.00
2022-10-18T02:46:50.392Z,0.00
2022-10-18T02:47:49.896Z,0.00
2022-10-18T02:48:50.102Z,0.00
2022-10-18T02:49:49.947Z,0.00
2022-10-18T02:50:49.873Z,0.00
2022-10-18T02:51:50.620Z,0.00
2022-10-18T02:52:49.935Z,0.00
2022-10-18T02:53:51.295Z,0.00
2022-10-18T02:54:51.056Z,0.00
2022-10-18T02:55:51.999Z,0.00
2022-10-18T02:56:54.920Z,0.00
2022-10-18T02:57:49.771Z,0.00
2022-10-18T02:58:49.994Z,0.00
2022-10-18T02:59:49.745Z,0.00
2022-10-18T03:00:50.179Z,0.00
2022-10-18T03:01:52.597Z,0.00
2022-10-18T03:02:51.345Z,0.00
2022-10-18T03:03:50.181Z,0.00
2022-10-18T03:04:49.671Z,0.00
2022-10-18T03:05:50.611Z,0.00
2022-10-18T03:06:49.652Z,0.00
2022-10-18T03:07:51.022Z,0.00
2022-10-18T03:08:49.827Z,0.00
2022-10-18T03:09:50.578Z,0.00
2022-10-18T03:10:49.995Z,0.00
2022-10-18T03:11:51.812Z,0.00
2022-10-18T03:12:49.578Z,0.00
2022-10-18T03:13:49.565Z,0.00
2022-10-18T03:14:52.365Z,0.00
2022-10-18T03:15:58.335Z,0.00
2022-10-18T03:16:49.984Z,0.00
2022-10-18T03:17:51.329Z,0.00
2022-10-18T03:18:49.487Z,0.00
2022-10-18T03:19:49.483Z,0.00
2022-10-18T03:20:50.277Z,0.00
2022-10-18T03:21:50.613Z,0.00
2022-10-18T03:22:49.431Z,0.00
2022-10-18T03:23:49.414Z,0.00
2022-10-18T03:24:49.566Z,0.00
2022-10-18T03:25:49.407Z,0.00
2022-10-18T03:26:49.718Z,0.00
2022-10-18T03:27:50.568Z,0.00
2022-10-18T03:28:49.448Z,0.00
2022-10-18T03:29:50.288Z,0.00
2022-10-18T03:30:53.139Z,0.00
2022-10-18T03:31:49.309Z,0.00
2022-10-18T03:32:50.637Z,0.00
2022-10-18T03:33:49.487Z,0.00
2022-10-18T03:34:49.800Z,0.00
2022-10-18T03:35:51.190Z,0.00
2022-10-18T03:36:52.562Z,0.00
2022-10-18T03:37:50.324Z,0.00
2022-10-18T03:38:50.129Z,0.00
2022-10-18T03:39:49.210Z,0.00
2022-10-18T03:40:49.763Z,0.00
2022-10-18T03:41:49.177Z,0.00
2022-10-18T03:42:49.165Z,0.00
2022-10-18T03:43:49.161Z,0.00
2022-10-18T03:44:49.138Z,0.00
2022-10-18T03:45:49.135Z,0.00
2022-10-18T03:46:49.100Z,0.00
2022-10-18T03:47:49.106Z,0.00
2022-10-18T03:48:49.082Z,0.00
2022-10-18T03:49:51.985Z,0.00
2022-10-18T03:50:50.070Z,0.00
2022-10-18T03:51:49.057Z,0.00
2022-10-18T03:52:49.036Z,0.00
2022-10-18T03:53:49.278Z,0.00
2022-10-18T03:54:49.022Z,0.00
2022-10-18T03:55:49.007Z,0.00
2022-10-18T03:56:48.970Z,0.00
2022-10-18T03:57:48.978Z,0.00
2022-10-18T03:58:48.968Z,0.00
2022-10-18T03:59:48.938Z,0.00
2022-10-18T04:00:48.942Z,0.00
2022-10-18T04:01:48.947Z,0.00
2022-10-18T04:02:52.013Z,0.00
2022-10-18T04:03:49.901Z,0.00
2022-10-18T04:04:48.889Z,0.00
2022-10-18T04:05:48.880Z,0.00
2022-10-18T04:06:48.938Z,0.00
2022-10-18T04:07:49.791Z,0.00
2022-10-18T04:08:48.812Z,0.00
2022-10-18T04:09:48.808Z,0.00
2022-10-18T04:10:49.749Z,0.00
2022-10-18T04:11:48.780Z,0.00
2022-10-18T04:12:48.766Z,0.00
2022-10-18T04:13:48.773Z,0.00
2022-10-18T04:14:48.743Z,0.00
2022-10-18T04:15:48.731Z,0.00
2022-10-18T04:16:48.717Z,0.00
2022-10-18T04:17:48.705Z,0.00
2022-10-18T04:18:48.692Z,0.00
2022-10-18T04:19:48.686Z,0.00
2022-10-18T04:20:48.666Z,0.00
2022-10-18T04:21:48.654Z,0.00
2022-10-18T04:22:48.633Z,0.00
2022-10-18T04:23:48.621Z,0.00
2022-10-18T04:24:48.606Z,0.00
2022-10-18T04:25:48.598Z,0.00
2022-10-18T04:26:48.586Z,0.00
2022-10-18T04:27:49.517Z,0.00
2022-10-18T04:28:48.660Z,0.00
2022-10-18T04:29:48.538Z,0.00
2022-10-18T04:30:48.528Z,0.00
2022-10-18T04:31:48.511Z,0.00
2022-10-18T04:32:48.529Z,0.00
2022-10-18T04:33:48.490Z,0.00
2022-10-18T04:34:48.474Z,0.00
2022-10-18T04:35:48.462Z,0.00
2022-10-18T04:36:48.461Z,0.00
2022-10-18T04:37:48.431Z,0.00
2022-10-18T04:38:48.418Z,0.00
2022-10-18T04:39:51.187Z,0.00
2022-10-18T04:40:49.410Z,0.00
2022-10-18T04:41:48.382Z,0.00
2022-10-18T04:42:48.372Z,0.00
2022-10-18T04:43:48.356Z,0.00
2022-10-18T04:44:48.353Z,0.00
2022-10-18T04:45:48.339Z,0.00
2022-10-18T04:46:48.330Z,0.00
2022-10-18T04:47:48.322Z,0.00
2022-10-18T04:48:48.305Z,0.00
2022-10-18T04:49:48.284Z,0.00
2022-10-18T04:50:48.274Z,0.00
2022-10-18T04:51:48.274Z,0.00
2022-10-18T04:53:48.226Z,0.00
2022-10-18T04:54:48.476Z,0.00
2022-10-18T04:55:48.196Z,0.00
2022-10-18T04:56:48.199Z,0.00
2022-10-18T04:57:48.202Z,0.00
2022-10-18T04:58:48.162Z,0.00
2022-10-18T04:59:48.137Z,0.00
2022-10-18T05:00:48.156Z,0.00
2022-10-18T05:01:48.262Z,0.00
2022-10-18T05:02:48.126Z,0.00
2022-10-18T05:03:48.100Z,0.00
2022-10-18T05:04:48.079Z,0.00
2022-10-18T05:06:01.420Z,0.00
2022-10-18T05:06:49.059Z,0.00
2022-10-18T05:07:48.049Z,0.00
2022-10-18T05:08:48.021Z,0.00
2022-10-18T05:09:48.018Z,0.00
2022-10-18T05:10:48.011Z,0.00
2022-10-18T05:11:47.992Z,0.00
2022-10-18T05:12:48.004Z,0.00
2022-10-18T05:13:50.191Z,2.00
2022-10-18T05:14:47.946Z,2.00
2022-10-18T05:15:47.942Z,0.00
2022-10-18T05:16:47.923Z,0.00
2022-10-18T05:17:47.903Z,0.00
2022-10-18T05:18:47.893Z,2.00
2022-10-18T05:19:48.834Z,5.00
2022-10-18T05:20:47.876Z,2.00
2022-10-18T05:21:47.853Z,13.00
2022-10-18T05:22:48.796Z,5.00
2022-10-18T05:23:47.835Z,6.00
2022-10-18T05:24:47.809Z,4.00
2022-10-18T05:25:47.809Z,17.00
2022-10-18T05:26:48.746Z,15.00
2022-10-18T05:27:48.724Z,18.00
2022-10-18T05:28:47.819Z,14.00
2022-10-18T05:29:47.757Z,19.00
2022-10-18T05:30:47.738Z,32.00
2022-10-18T05:31:47.718Z,25.00
2022-10-18T05:32:47.706Z,27.00
2022-10-18T05:33:47.690Z,25.00
2022-10-18T05:34:47.689Z,29.00
2022-10-18T05:35:47.710Z,32.00
2022-10-18T05:36:47.654Z,31.00
2022-10-18T05:37:47.630Z,27.00
2022-10-18T05:38:47.634Z,22.00
2022-10-18T05:39:47.619Z,23.00
2022-10-18T05:40:47.611Z,26.00
2022-10-18T05:41:47.581Z,27.00
2022-10-18T05:42:47.571Z,38.00
2022-10-18T05:43:47.562Z,32.00
2022-10-18T05:44:47.554Z,41.00
2022-10-18T05:45:47.542Z,41.00
2022-10-18T05:46:47.520Z,42.00
2022-10-18T05:47:47.505Z,56.00
2022-10-18T05:48:47.494Z,61.00
2022-10-18T05:49:47.504Z,92.00
2022-10-18T05:50:47.469Z,99.00
2022-10-18T05:51:48.399Z,109.00
2022-10-18T05:52:47.446Z,117.00
2022-10-18T05:53:47.415Z,146.00
2022-10-18T05:54:47.422Z,157.00
2022-10-18T05:55:47.396Z,184.00
2022-10-18T05:56:47.386Z,181.00
2022-10-18T05:57:47.366Z,195.00
2022-10-18T05:58:47.356Z,207.00
2022-10-18T05:59:47.347Z,194.00
2022-10-18T06:00:47.334Z,189.00
2022-10-18T06:01:47.327Z,187.00
2022-10-18T06:02:47.326Z,181.00
2022-10-18T06:03:47.288Z,175.00
2022-10-18T06:04:47.287Z,182.00
2022-10-18T06:05:47.280Z,196.00
2022-10-18T06:06:47.249Z,204.00
2022-10-18T06:07:47.240Z,207.00
2022-10-18T06:08:47.345Z,203.00
2022-10-18T06:09:47.210Z,196.00
2022-10-18T06:10:47.211Z,221.00
2022-10-18T06:11:47.181Z,250.00
2022-10-18T06:12:47.179Z,260.00
2022-10-18T06:13:47.166Z,289.00
2022-10-18T06:14:47.147Z,294.00
2022-10-18T06:15:47.125Z,283.00
2022-10-18T06:16:47.121Z,273.00
2022-10-18T06:17:47.118Z,264.00
2022-10-18T06:18:47.101Z,263.00
2022-10-18T06:19:47.073Z,249.00
2022-10-18T06:20:47.062Z,247.00
2022-10-18T06:21:47.044Z,249.00
2022-10-18T06:22:47.036Z,255.00
2022-10-18T06:23:47.025Z,275.00
2022-10-18T06:24:47.018Z,305.00
2022-10-18T06:25:47.005Z,326.00
2022-10-18T06:26:46.987Z,337.00
2022-10-18T06:27:46.981Z,344.00
2022-10-18T06:28:47.070Z,363.00
2022-10-18T06:29:46.945Z,363.00
2022-10-18T06:30:46.957Z,361.00
2022-10-18T06:31:46.917Z,346.00
2022-10-18T06:32:47.853Z,333.00
2022-10-18T06:33:46.898Z,309.00
2022-10-18T06:34:46.877Z,322.00
2022-10-18T06:35:46.859Z,315.00
2022-10-18T06:36:47.810Z,346.00
2022-10-18T06:37:46.832Z,390.00
2022-10-18T06:38:46.830Z,477.00
2022-10-18T06:39:46.809Z,563.00
2022-10-18T06:40:46.801Z,632.00
2022-10-18T06:41:46.770Z,678.00
2022-10-18T06:42:55.212Z,733.00
2022-10-18T06:43:47.761Z,774.00
2022-10-18T06:44:46.757Z,749.00
2022-10-18T06:45:46.741Z,646.00
2022-10-18T06:46:46.727Z,543.00
2022-10-18T06:47:46.712Z,481.00
2022-10-18T06:48:46.720Z,453.00
2022-10-18T06:49:46.681Z,483.00
2022-10-18T06:50:46.690Z,572.00
2022-10-18T06:51:46.644Z,702.00
2022-10-18T06:52:46.634Z,806.00
2022-10-18T06:53:59.028Z,880.00
2022-10-18T06:54:47.605Z,921.00
2022-10-18T06:55:46.595Z,934.00
2022-10-18T06:56:46.595Z,888.00
2022-10-18T06:57:46.566Z,825.00
2022-10-18T06:58:46.610Z,776.00
2022-10-18T06:59:46.547Z,747.00
2022-10-18T07:00:46.528Z,709.00
2022-10-18T07:01:46.539Z,647.00
2022-10-18T07:02:46.497Z,570.00
2022-10-18T07:03:46.484Z,511.00
2022-10-18T07:04:46.480Z,494.00
2022-10-18T07:05:46.448Z,531.00
2022-10-18T07:06:46.438Z,558.00
2022-10-18T07:07:46.441Z,578.00
2022-10-18T07:08:46.459Z,584.00
2022-10-18T07:09:46.420Z,618.00
2022-10-18T07:10:46.419Z,650.00
2022-10-18T07:11:46.390Z,658.00
2022-10-18T07:12:46.390Z,653.00
2022-10-18T07:13:46.351Z,679.00
2022-10-18T07:14:46.330Z,721.00
2022-10-18T07:15:46.342Z,786.00
2022-10-18T07:16:46.301Z,920.00
2022-10-18T07:17:46.283Z,1180.00
2022-10-18T07:18:46.283Z,1653.00
2022-10-18T07:19:46.262Z,2163.00
2022-10-18T07:20:46.242Z,2548.00
2022-10-18T07:21:46.234Z,2731.00
2022-10-18T07:22:46.214Z,2721.00
2022-10-18T07:23:46.227Z,2700.00
2022-10-18T07:24:47.163Z,2616.00
2022-10-18T07:25:46.183Z,2453.00
2022-10-18T07:26:46.173Z,2263.00
2022-10-18T07:27:46.156Z,2134.00
2022-10-18T07:28:46.228Z,2007.00
2022-10-18T07:29:46.117Z,1890.00
2022-10-18T07:30:46.115Z,1951.00
2022-10-18T07:31:46.100Z,2194.00
2022-10-18T07:32:46.130Z,2466.00
2022-10-18T07:33:46.067Z,2693.00
2022-10-18T07:34:46.088Z,2909.00
2022-10-18T07:35:47.017Z,3137.00
2022-10-18T07:36:46.068Z,3439.00
2022-10-18T07:37:46.036Z,3629.00
2022-10-18T07:38:46.010Z,3670.00
2022-10-18T07:39:45.989Z,3756.00
2022-10-18T07:40:46.000Z,3961.00
2022-10-18T07:41:46.010Z,4159.00
2022-10-18T07:42:45.952Z,4272.00
2022-10-18T07:43:45.983Z,4378.00
2022-10-18T07:44:45.953Z,4414.00
2022-10-18T07:45:45.914Z,4460.00
2022-10-18T07:46:46.849Z,4288.00
2022-10-18T07:47:45.878Z,3948.00
2022-10-18T07:48:45.881Z,3668.00
2022-10-18T07:49:45.857Z,3500.00
2022-10-18T07:50:45.844Z,3330.00
2022-10-18T07:51:45.823Z,3477.00
2022-10-18T07:52:45.812Z,3840.00
2022-10-18T07:53:45.812Z,4251.00
2022-10-18T07:54:45.826Z,4415.00
2022-10-18T07:55:45.775Z,4263.00
2022-10-18T07:56:45.754Z,4002.00
2022-10-18T07:57:45.735Z,3913.00
2022-10-18T07:58:45.735Z,3891.00
2022-10-18T07:59:45.718Z,4072.00
2022-10-18T08:00:45.707Z,4095.00
2022-10-18T08:01:45.826Z,4361.00
2022-10-18T08:02:45.677Z,4523.00
2022-10-18T08:03:45.676Z,4258.00
2022-10-18T08:04:45.648Z,4020.00
2022-10-18T08:05:45.640Z,3813.00
2022-10-18T08:06:46.578Z,3620.00
2022-10-18T08:07:45.618Z,3366.00
2022-10-18T08:08:45.599Z,2680.00
2022-10-18T08:09:45.572Z,1182.00
2022-10-18T08:10:45.570Z,161.00
2022-10-18T08:11:45.790Z,75.00
2022-10-18T08:12:45.550Z,71.00
2022-10-18T08:13:45.521Z,60.00
2022-10-18T08:14:45.775Z,194.00
2022-10-18T08:15:45.501Z,1501.00
2022-10-18T08:16:45.492Z,1683.00
2022-10-18T08:17:45.492Z,1241.00
2022-10-18T08:18:45.467Z,1075.00
2022-10-18T08:19:52.982Z,958.00
2022-10-18T08:20:46.443Z,859.00
2022-10-18T08:21:45.416Z,778.00
2022-10-18T08:22:45.424Z,606.00
2022-10-18T08:23:45.390Z,366.00
2022-10-18T08:24:45.382Z,198.00
2022-10-18T08:25:45.429Z,195.00
2022-10-18T08:26:45.399Z,219.00
2022-10-18T08:27:45.346Z,242.00
2022-10-18T08:28:53.723Z,298.00
2022-10-18T08:29:46.345Z,357.00
2022-10-18T08:30:45.300Z,408.00
2022-10-18T08:31:45.289Z,420.00
2022-10-18T08:32:45.276Z,423.00
2022-10-18T08:33:45.275Z,419.00
2022-10-18T08:34:45.246Z,423.00
2022-10-18T08:35:45.228Z,461.00
2022-10-18T08:36:45.234Z,553.00
2022-10-18T08:37:45.209Z,654.00
2022-10-18T08:38:45.199Z,690.00
2022-10-18T08:39:45.170Z,642.00
2022-10-18T08:40:46.133Z,481.00
2022-10-18T08:41:45.183Z,346.00
2022-10-18T08:42:45.160Z,417.00
2022-10-18T08:43:45.125Z,488.00
2022-10-18T08:44:45.109Z,534.00
2022-10-18T08:45:45.102Z,534.00
2022-10-18T08:46:45.096Z,575.00
2022-10-18T08:47:45.078Z,654.00
2022-10-18T08:48:45.043Z,706.00
2022-10-18T08:49:47.155Z,771.00
2022-10-18T08:50:45.023Z,783.00
2022-10-18T08:51:45.024Z,904.00
2022-10-18T08:52:45.238Z,1004.00
2022-10-18T08:53:45.013Z,1316.00
2022-10-18T08:54:44.965Z,1406.00
2022-10-18T08:55:45.926Z,1395.00
2022-10-18T08:56:44.949Z,1336.00
2022-10-18T08:57:44.944Z,1055.00
2022-10-18T08:58:44.925Z,910.00
2022-10-18T08:59:44.943Z,859.00
2022-10-18T09:00:44.906Z,831.00
2022-10-18T09:01:44.985Z,897.00
2022-10-18T09:02:44.868Z,931.00
2022-10-18T09:03:44.940Z,859.00
2022-10-18T09:04:44.844Z,870.00
2022-10-18T09:05:44.840Z,890.00
2022-10-18T09:06:44.823Z,862.00
2022-10-18T09:07:44.808Z,780.00
2022-10-18T09:08:44.779Z,694.00
2022-10-18T09:09:44.777Z,581.00
2022-10-18T09:10:44.842Z,502.00
2022-10-18T09:11:44.749Z,476.00
2022-10-18T09:12:44.739Z,434.00
2022-10-18T09:13:44.721Z,448.00
2022-10-18T09:14:44.698Z,536.00
2022-10-18T09:15:44.690Z,732.00
2022-10-18T09:16:44.672Z,873.00
2022-10-18T09:17:44.669Z,614.00
2022-10-18T09:18:44.642Z,614.00
2022-10-18T09:19:44.630Z,834.00
2022-10-18T09:20:44.619Z,1150.00
2022-10-18T09:21:44.605Z,1289.00
2022-10-18T09:22:44.593Z,1220.00
2022-10-18T09:23:44.585Z,1311.00
2022-10-18T09:24:44.569Z,1617.00
2022-10-18T09:25:44.562Z,1802.00
2022-10-18T09:26:44.535Z,1794.00
2022-10-18T09:27:45.506Z,1761.00
2022-10-18T09:28:44.581Z,1742.00
2022-10-18T09:29:44.747Z,1699.00
2022-10-18T09:30:44.486Z,1630.00
2022-10-18T09:31:44.478Z,1546.00
2022-10-18T09:32:44.487Z,1518.00
2022-10-18T09:33:44.437Z,1460.00
2022-10-18T09:34:44.428Z,1525.00
2022-10-18T09:35:44.419Z,1684.00
2022-10-18T09:36:44.415Z,2020.00
2022-10-18T09:37:44.398Z,2541.00
2022-10-18T09:38:44.380Z,3182.00
2022-10-18T09:39:44.405Z,3795.00
2022-10-18T09:40:44.349Z,4231.00
2022-10-18T09:41:44.332Z,4599.00
2022-10-18T09:42:44.334Z,4625.00
2022-10-18T09:43:44.311Z,4434.00
2022-10-18T09:44:44.300Z,3933.00
2022-10-18T09:45:44.519Z,3514.00
2022-10-18T09:46:44.313Z,3780.00
2022-10-18T09:47:44.268Z,3539.00
2022-10-18T09:48:44.240Z,3423.00
2022-10-18T09:49:44.240Z,3258.00
2022-10-18T09:50:44.230Z,3166.00
2022-10-18T09:51:44.199Z,3080.00
2022-10-18T09:52:44.193Z,2871.00
2022-10-18T09:53:44.167Z,2672.00
2022-10-18T09:54:44.154Z,2427.00
2022-10-18T09:55:44.153Z,2450.00
2022-10-18T09:56:44.184Z,2366.00
2022-10-18T09:57:44.137Z,2490.00
2022-10-18T09:58:44.106Z,2558.00
2022-10-18T09:59:44.106Z,2685.00
2022-10-18T10:00:44.076Z,2801.00
2022-10-18T10:01:45.012Z,2819.00
2022-10-18T10:02:44.120Z,2793.00
2022-10-18T10:03:44.035Z,2871.00
2022-10-18T10:04:44.032Z,3010.00
2022-10-18T10:05:44.033Z,3060.00
2022-10-18T10:06:43.998Z,3012.00
2022-10-18T10:07:44.924Z,2915.00
2022-10-18T10:08:43.968Z,2821.00
2022-10-18T10:09:43.947Z,2610.00
2022-10-18T10:10:43.948Z,2494.00
2022-10-18T10:11:43.933Z,2327.00
2022-10-18T10:12:43.916Z,2346.00
2022-10-18T10:13:43.891Z,2385.00
2022-10-18T10:14:43.907Z,2410.00
2022-10-18T10:15:43.869Z,2417.00
2022-10-18T10:16:43.881Z,2371.00
2022-10-18T10:17:43.845Z,2220.00
2022-10-18T10:18:43.854Z,2104.00
2022-10-18T10:19:44.770Z,2154.00
2022-10-18T10:20:43.794Z,2203.00
2022-10-18T10:21:44.033Z,2337.00
2022-10-18T10:22:43.763Z,2549.00
2022-10-18T10:23:43.766Z,2589.00
2022-10-18T10:24:43.753Z,2721.00
2022-10-18T10:25:43.752Z,2751.00
2022-10-18T10:26:43.724Z,2914.00
2022-10-18T10:27:43.711Z,3155.00
2022-10-18T10:28:43.754Z,3203.00
2022-10-18T10:29:44.884Z,3627.00
2022-10-18T10:30:43.655Z,3761.00
2022-10-18T10:31:43.686Z,4054.00
2022-10-18T10:32:43.647Z,4290.00
2022-10-18T10:33:43.642Z,4034.00
2022-10-18T10:34:44.817Z,3959.00
2022-10-18T10:35:58.877Z,4204.00
2022-10-18T10:36:44.598Z,3810.00
2022-10-18T10:37:43.584Z,3823.00
2022-10-18T10:38:43.549Z,3787.00
2022-10-18T10:39:51.193Z,4172.00
2022-10-18T10:40:44.549Z,3950.00
2022-10-18T10:41:43.551Z,3794.00
2022-10-18T10:42:43.539Z,3587.00
2022-10-18T10:43:43.481Z,3409.00
2022-10-18T10:44:43.463Z,3637.00
2022-10-18T10:45:43.466Z,3664.00
2022-10-18T10:46:43.631Z,3688.00
2022-10-18T10:47:43.430Z,3716.00
2022-10-18T10:48:43.661Z,4009.00
2022-10-18T10:49:43.423Z,4048.00
2022-10-18T10:50:43.409Z,4515.00
2022-10-18T10:51:43.378Z,4762.00
2022-10-18T10:52:43.490Z,4720.00
2022-10-18T10:53:43.551Z,4835.00
2022-10-18T10:54:45.502Z,4909.00
2022-10-18T10:55:43.345Z,4984.00
2022-10-18T10:56:43.314Z,5031.00
2022-10-18T10:57:43.289Z,4833.00
2022-10-18T10:58:43.275Z,4758.00
2022-10-18T10:59:43.275Z,4551.00
2022-10-18T11:00:43.252Z,4274.00
2022-10-18T11:01:43.236Z,4120.00
2022-10-18T11:02:51.141Z,4167.00
2022-10-18T11:03:44.278Z,4072.00
2022-10-18T11:04:43.193Z,3908.00
2022-10-18T11:05:43.193Z,3709.00
2022-10-18T11:06:43.166Z,3483.00
2022-10-18T11:07:43.167Z,3250.00
2022-10-18T11:08:43.213Z,2981.00
2022-10-18T11:09:43.136Z,2674.00
2022-10-18T11:10:43.120Z,2437.00
2022-10-18T11:11:44.102Z,2288.00
2022-10-18T11:12:43.093Z,2321.00
2022-10-18T11:13:43.079Z,2580.00
2022-10-18T11:14:43.060Z,3009.00
2022-10-18T11:15:43.058Z,3496.00
2022-10-18T11:16:43.031Z,3858.00
2022-10-18T11:17:43.083Z,3982.00
2022-10-18T11:18:43.021Z,3892.00
2022-10-18T11:19:43.040Z,3870.00
2022-10-18T11:20:43.030Z,3993.00
2022-10-18T11:21:42.982Z,4086.00
2022-10-18T11:22:42.952Z,4037.00
2022-10-18T11:23:42.963Z,3923.00
2022-10-18T11:24:42.933Z,3880.00
2022-10-18T11:25:43.913Z,3917.00
2022-10-18T11:26:45.526Z,3928.00
2022-10-18T11:27:43.888Z,3744.00
2022-10-18T11:28:42.922Z,3396.00
2022-10-18T11:29:42.875Z,3008.00
2022-10-18T11:30:42.846Z,2671.00
2022-10-18T11:31:42.846Z,2493.00
2022-10-18T11:32:42.822Z,2421.00
2022-10-18T11:34:07.645Z,2446.00
2022-10-18T11:34:43.822Z,2474.00
2022-10-18T11:35:43.738Z,2575.00
2022-10-18T11:36:49.487Z,2761.00
2022-10-18T11:37:44.323Z,2991.00
2022-10-18T11:38:42.733Z,3153.00
2022-10-18T11:39:42.758Z,3231.00
2022-10-18T11:40:42.723Z,3237.00
2022-10-18T11:41:42.699Z,3251.00
2022-10-18T11:42:42.679Z,3208.00
2022-10-18T11:44:01.116Z,3169.00
2022-10-18T11:44:44.615Z,3040.00
2022-10-18T11:45:42.641Z,2958.00
2022-10-18T11:46:42.644Z,2952.00
2022-10-18T11:47:42.621Z,2823.00
2022-10-18T11:48:42.601Z,2544.00
2022-10-18T11:49:42.602Z,2176.00
2022-10-18T11:50:43.574Z,1722.00
2022-10-18T11:52:03.215Z,1453.00
2022-10-18T11:52:43.554Z,1530.00
2022-10-18T11:53:42.532Z,1755.00
2022-10-18T11:54:42.532Z,1778.00
2022-10-18T11:55:42.593Z,1635.00
2022-10-18T11:56:42.495Z,1505.00
2022-10-18T11:57:42.746Z,1528.00
2022-10-18T11:58:42.465Z,1746.00
2022-10-18T11:59:42.462Z,1837.00
2022-10-18T12:00:42.438Z,1739.00
2022-10-18T12:01:42.437Z,1679.00
2022-10-18T12:02:42.454Z,1768.00
2022-10-18T12:03:42.421Z,1800.00
2022-10-18T12:04:53.101Z,1855.00
2022-10-18T12:05:43.382Z,1879.00
2022-10-18T12:06:43.346Z,1921.00
2022-10-18T12:07:42.358Z,1978.00
2022-10-18T12:08:42.329Z,2002.00
2022-10-18T12:09:42.383Z,1971.00
2022-10-18T12:10:52.771Z,1984.00
2022-10-18T12:11:45.486Z,2039.00
2022-10-18T12:12:42.290Z,2044.00
2022-10-18T12:13:42.279Z,2059.00
2022-10-18T12:14:42.269Z,2045.00
2022-10-18T12:15:42.262Z,2030.00
2022-10-18T12:16:51.476Z,2000.00
2022-10-18T12:17:48.882Z,2007.00
2022-10-18T12:18:43.292Z,2035.00
2022-10-18T12:19:42.182Z,1999.00
2022-10-18T12:20:42.161Z,1895.00
2022-10-18T12:21:42.178Z,1748.00
2022-10-18T12:22:42.133Z,1587.00
2022-10-18T12:23:43.081Z,1496.00
2022-10-18T12:24:42.123Z,1457.00
2022-10-18T12:25:43.053Z,1423.00
2022-10-18T12:26:42.103Z,1242.00
2022-10-18T12:27:42.072Z,1084.00
2022-10-18T12:28:42.103Z,1467.00
2022-10-18T12:29:44.353Z,2072.00
2022-10-18T12:30:42.995Z,2353.00
2022-10-18T12:31:42.021Z,2416.00
2022-10-18T12:32:56.378Z,2434.00
2022-10-18T12:33:43.010Z,2456.00
2022-10-18T12:34:42.004Z,2402.00
2022-10-18T12:35:41.978Z,2323.00
2022-10-18T12:36:41.944Z,2240.00
2022-10-18T12:37:41.965Z,2180.00
2022-10-18T12:38:41.918Z,2103.00
2022-10-18T12:39:44.161Z,1981.00
2022-10-18T12:40:42.906Z,1878.00
2022-10-18T12:41:41.888Z,1814.00
2022-10-18T12:42:41.868Z,1789.00
2022-10-18T12:43:41.858Z,1781.00